| time (UTC) | temp C | wind direction | speed KPH | gust KPH | rain 1hr cm | rain 24hr cm | rain mn cm | humidity % | barometer mb |
| 20260509200534 | 32 | 257 | 0.0 | 0.0 | 0.00 | 0.00 | 0.00 | 51 | 971.2 |
| 20260509195525 | 33 | 257 | 0.0 | 0.0 | 0.00 | 0.00 | 0.00 | 46 | 971.1 |
| 20260509194513 | 33 | 256 | 0.0 | 0.0 | 0.00 | 0.00 | 0.00 | 47 | 971.0 |
| 20260509193527 | 33 | 257 | 0.0 | 0.0 | 0.00 | 0.00 | 0.00 | 52 | 971.0 |
| 20260509191353 | 33 | 257 | 0.0 | 0.0 | 0.00 | 0.00 | 0.00 | 53 | 971.1 |
| 20260509190319 | 32 | 257 | 0.0 | 0.0 | 0.00 | 0.00 | 0.00 | 54 | 971.3 |
| 20260509185310 | 32 | 257 | 0.0 | 0.0 | 0.00 | 0.00 | 0.00 | 55 | 971.5 |
| 20260509184316 | 31 | 257 | 0.0 | 0.0 | 0.00 | 0.00 | 0.00 | 56 | 971.6 |
| 20260509183244 | 31 | 257 | 0.0 | 0.0 | 0.00 | 0.00 | 0.00 | 57 | 971.8 |
| 20260509182234 | 31 | 257 | 0.0 | 0.0 | 0.00 | 0.00 | 0.00 | 57 | 971.9 |
| 20260509181235 | 31 | 257 | 0.0 | 0.0 | 0.00 | 0.00 | 0.00 | 56 | 971.9 |
| 20260509180225 | 30 | 257 | 0.0 | 0.0 | 0.00 | 0.00 | 0.00 | 57 | 972.2 |
| 20260509175203 | 30 | 257 | 0.0 | 0.0 | 0.00 | 0.00 | 0.00 | 60 | 972.1 |
| 20260509174221 | 30 | 257 | 0.0 | 0.0 | 0.00 | 0.00 | 0.00 | 59 | 972.2 |
| 20260509173235 | 30 | 257 | 0.0 | 0.0 | 0.00 | 0.00 | 0.00 | 58 | 972.4 |
| 20260509172204 | 31 | 257 | 0.0 | 0.0 | 0.00 | 0.00 | 0.00 | 58 | 972.8 |
| 20260509165943 | 29 | 257 | 0.0 | 0.0 | 0.00 | 0.00 | 0.00 | 54 | 972.7 |
| 20260509164945 | 28 | 257 | 0.0 | 0.0 | 0.00 | 0.00 | 0.00 | 50 | 972.7 |
| 20260509164007 | 27 | 257 | 0.0 | 0.0 | 0.00 | 0.00 | 0.00 | 39 | 972.7 |
| 20260509162941 | 27 | 257 | 0.0 | 4.8 | 0.00 | 0.00 | 0.00 | 6 | 972.7 |
| 20260509161941 | 26 | 229 | 0.0 | 3.2 | 0.00 | 0.00 | 0.00 | 1 | 972.9 |
| 20260509155848 | 25 | 227 | 0.0 | 0.0 | 0.00 | 0.00 | 0.00 | 1 | 973.0 |
| 20260509154911 | 25 | 227 | 0.0 | 0.0 | 0.00 | 0.00 | 0.00 | 1 | 972.9 |
| 20260509153905 | 25 | 227 | 0.0 | 0.0 | 0.00 | 0.00 | 0.00 | 1 | 973.0 |
| 20260509152901 | 25 | 227 | 0.0 | 0.0 | 0.00 | 0.00 | 0.00 | 1 | 972.8 |
| 20260509151859 | 26 | 226 | 0.0 | 0.0 | 0.00 | 0.00 | 0.00 | 1 | 972.5 |
| 20260509150905 | 26 | 227 | 0.0 | 1.6 | 0.00 | 0.00 | 0.00 | 1 | 972.3 |
| 20260509144736 | 27 | 223 | 0.0 | 0.0 | 0.00 | 0.00 | 0.00 | 11 | 972.2 |
| 20260509143758 | 27 | 223 | 0.0 | 3.2 | 0.00 | 0.00 | 0.00 | 3 | 972.3 |
| 20260509142811 | 26 | 222 | 0.0 | 1.6 | 0.00 | 0.00 | 0.00 | 1 | 972.0 |
| 20260509140646 | 26 | 220 | 0.0 | 1.6 | 0.00 | 0.00 | 0.00 | 1 | 971.5 |
| 20260509135627 | 24 | 212 | 0.0 | 1.6 | 0.00 | 0.00 | 0.00 | 1 | 971.3 |
| 20260509134634 | 23 | 211 | 0.0 | 4.8 | 0.00 | 0.00 | 0.00 | 1 | 971.4 |
| 20260509133659 | 23 | 209 | 0.0 | 0.0 | 0.00 | 0.00 | 0.00 | 1 | 971.5 |
| 20260509131502 | 22 | 209 | 0.0 | 0.0 | 0.00 | 0.00 | 0.00 | 1 | 971.7 |
| 20260509130449 | 22 | 209 | 0.0 | 0.0 | 0.00 | 0.00 | 0.00 | 1 | 971.8 |
| 20260509125453 | 22 | 209 | 0.0 | 0.0 | 0.00 | 0.00 | 0.00 | 1 | 972.0 |
| 20260509123324 | 22 | 209 | 0.0 | 0.0 | 0.00 | 0.00 | 0.00 | 1 | 972.1 |
| 20260509122305 | 22 | 209 | 0.0 | 0.0 | 0.00 | 0.00 | 0.00 | 1 | 971.9 |
| 20260509121246 | 22 | 209 | 0.0 | 0.0 | 0.00 | 0.00 | 0.00 | 1 | 971.9 |
| 20260509120240 | 22 | 209 | 0.0 | 0.0 | 0.00 | 0.00 | 0.00 | 1 | 972.2 |
| 20260509114027 | 22 | 209 | 0.0 | 0.0 | 0.00 | 0.00 | 0.00 | 1 | 972.2 |
| 20260509113016 | 22 | 209 | 0.0 | 0.0 | 0.00 | 0.00 | 0.00 | 1 | 972.4 |
| 20260509111946 | 22 | 209 | 0.0 | 0.0 | 0.00 | 0.00 | 0.00 | 1 | 972.9 |
| 20260509111010 | 22 | 209 | 0.0 | 0.0 | 0.00 | 0.00 | 0.00 | 1 | 973.1 |
| 20260509110022 | 22 | 209 | 0.0 | 0.0 | 0.00 | 0.00 | 0.00 | 1 | 973.3 |
| 20260509103834 | 22 | 209 | 0.0 | 0.0 | 0.00 | 0.00 | 0.00 | 1 | 973.1 |
| 20260509102826 | 22 | 209 | 0.0 | 0.0 | 0.00 | 0.00 | 0.00 | 1 | 973.3 |
| 20260509101820 | 22 | 209 | 0.0 | 0.0 | 0.00 | 0.00 | 0.00 | 1 | 973.2 |
| 20260509095720 | 22 | 209 | 0.0 | 0.0 | 0.00 | 0.00 | 0.00 | 1 | 972.6 |
| 20260509094702 | 22 | 209 | 0.0 | 0.0 | 0.00 | 0.00 | 0.00 | 1 | 972.1 |
| 20260509093716 | 22 | 209 | 0.0 | 0.0 | 0.00 | 0.00 | 0.00 | 1 | 971.7 |
| 20260509092722 | 22 | 209 | 0.0 | 0.0 | 0.00 | 0.00 | 0.00 | 1 | 971.6 |
| 20260509091711 | 22 | 209 | 0.0 | 0.0 | 0.00 | 0.00 | 0.00 | 1 | 971.6 |
| 20260509090642 | 22 | 209 | 0.0 | 0.0 | 0.00 | 0.00 | 0.00 | 1 | 971.5 |
| 20260509085631 | 22 | 209 | 0.0 | 0.0 | 0.00 | 0.00 | 0.00 | 1 | 971.6 |
| 20260509084632 | 22 | 209 | 0.0 | 0.0 | 0.00 | 0.00 | 0.00 | 1 | 971.7 |
| 20260509083629 | 22 | 209 | 0.0 | 0.0 | 0.00 | 0.00 | 0.00 | 1 | 971.8 |
| 20260509082646 | 22 | 209 | 0.0 | 0.0 | 0.00 | 0.00 | 0.00 | 1 | 972.0 |
| 20260509080506 | 22 | 209 | 0.0 | 0.0 | 0.00 | 0.00 | 0.00 | 1 | 972.1 |
| 20260509075443 | 22 | 209 | 0.0 | 0.0 | 0.00 | 0.00 | 0.00 | 1 | 972.1 |
| 20260509074433 | 22 | 209 | 0.0 | 0.0 | 0.00 | 0.00 | 0.00 | 1 | 972.1 |
| 20260509073451 | 22 | 209 | 0.0 | 0.0 | 0.00 | 0.00 | 0.00 | 1 | 972.0 |
| 20260509072428 | 22 | 209 | 0.0 | 0.0 | 0.00 | 0.00 | 0.00 | 1 | 972.3 |
| 20260509071442 | 22 | 209 | 0.0 | 0.0 | 0.00 | 0.00 | 0.00 | 1 | 972.3 |
| 20260509070411 | 22 | 209 | 0.0 | 0.0 | 0.00 | 0.00 | 0.00 | 1 | 972.7 |
| 20260509065347 | 22 | 209 | 0.0 | 0.0 | 0.00 | 0.00 | 0.00 | 1 | 972.5 |
| 20260509064313 | 22 | 209 | 0.0 | 0.0 | 0.00 | 0.00 | 0.00 | 1 | 972.2 |
| 20260509063335 | 22 | 209 | 0.0 | 0.0 | 0.00 | 0.00 | 0.00 | 1 | 972.2 |
| 20260509062309 | 22 | 209 | 0.0 | 0.0 | 0.00 | 0.00 | 0.00 | 1 | 972.4 |
| 20260509061328 | 22 | 209 | 0.0 | 0.0 | 0.00 | 0.00 | 0.00 | 1 | 972.2 |
| 20260509060321 | 22 | 209 | 0.0 | 0.0 | 0.00 | 0.00 | 0.00 | 1 | 971.7 |
| 20260509055249 | 22 | 209 | 0.0 | 0.0 | 0.00 | 0.00 | 0.00 | 1 | 971.8 |
| 20260509054249 | 22 | 209 | 0.0 | 0.0 | 0.00 | 0.00 | 0.00 | 1 | 972.0 |
| 20260509053307 | 22 | 208 | 0.0 | 0.0 | 0.00 | 0.00 | 0.00 | 1 | 971.5 |
| 20260509052331 | 22 | 208 | 0.0 | 0.0 | 0.00 | 0.00 | 0.00 | 1 | 971.1 |
| 20260509051309 | 22 | 208 | 0.0 | 0.0 | 0.00 | 0.00 | 0.00 | 1 | 970.9 |
| 20260509050241 | 22 | 208 | 0.0 | 0.0 | 0.00 | 0.00 | 0.00 | 1 | 970.9 |
| 20260509042922 | 22 | 208 | 0.0 | 0.0 | 0.00 | 0.00 | 0.00 | 1 | 971.3 |
| 20260509041914 | 22 | 208 | 0.0 | 0.0 | 0.00 | 0.00 | 0.00 | 1 | 971.5 |
| 20260509035711 | 22 | 208 | 0.0 | 0.0 | 0.00 | 0.00 | 0.00 | 1 | 971.6 |
| 20260509034722 | 22 | 208 | 0.0 | 0.0 | 0.00 | 0.00 | 0.00 | 1 | 971.5 |
| 20260509033718 | 22 | 208 | 0.0 | 0.0 | 0.00 | 0.00 | 0.00 | 1 | 971.4 |
| 20260509032707 | 22 | 208 | 0.0 | 0.0 | 0.00 | 0.00 | 0.00 | 1 | 971.2 |
| 20260509030546 | 22 | 208 | 0.0 | 0.0 | 0.00 | 0.00 | 0.00 | 1 | 971.1 |
| 20260509025525 | 22 | 208 | 0.0 | 0.0 | 0.00 | 0.00 | 0.00 | 1 | 971.1 |
| 20260509024537 | 23 | 208 | 0.0 | 0.0 | 0.00 | 0.00 | 0.00 | 1 | 971.1 |
| 20260509023543 | 23 | 208 | 0.0 | 0.0 | 0.00 | 0.00 | 0.00 | 1 | 970.9 |
| 20260509021423 | 23 | 208 | 0.0 | 0.0 | 0.00 | 0.00 | 0.00 | 1 | 970.6 |
| 20260509020446 | 23 | 208 | 0.0 | 0.0 | 0.00 | 0.00 | 0.00 | 1 | 970.4 |
| 20260509015501 | 23 | 208 | 0.0 | 0.0 | 0.00 | 0.00 | 0.00 | 1 | 970.2 |
| 20260509014503 | 23 | 208 | 0.0 | 0.0 | 0.00 | 0.00 | 0.00 | 1 | 970.3 |
| 20260509013450 | 23 | 208 | 0.0 | 0.0 | 0.00 | 0.00 | 0.00 | 3 | 970.1 |
| 20260509012449 | 23 | 208 | 0.0 | 0.0 | 0.00 | 0.00 | 0.00 | 10 | 970.0 |
| 20260509011437 | 23 | 208 | 0.0 | 0.0 | 0.00 | 0.00 | 0.00 | 14 | 969.9 |
| 20260509010439 | 24 | 208 | 0.0 | 0.0 | 0.00 | 0.00 | 0.00 | 17 | 970.0 |
| 20260509005441 | 24 | 208 | 0.0 | 0.0 | 0.00 | 0.00 | 0.00 | 22 | 970.1 |
| 20260509004447 | 24 | 208 | 0.0 | 0.0 | 0.00 | 0.00 | 0.00 | 24 | 970.1 |
| 20260509002320 | 24 | 208 | 0.0 | 0.0 | 0.00 | 0.00 | 0.00 | 31 | 970.1 |
| 20260509000147 | 24 | 208 | 0.0 | 0.0 | 0.00 | 0.00 | 0.00 | 39 | 970.2 |
| 20260508235139 | 24 | 208 | 0.0 | 0.0 | 0.00 | 0.00 | 0.00 | 42 | 970.2 |
| 20260508234150 | 24 | 208 | 0.0 | 0.0 | 0.00 | 0.00 | 0.00 | 46 | 970.2 |
| 20260508233210 | 25 | 208 | 0.0 | 0.0 | 0.00 | 0.00 | 0.00 | 48 | 970.2 |
| 20260508232232 | 25 | 208 | 0.0 | 0.0 | 0.00 | 0.00 | 0.00 | 50 | 970.2 |
| 20260508231209 | 25 | 208 | 0.0 | 0.0 | 0.00 | 0.00 | 0.00 | 52 | 970.2 |
| 20260508230205 | 25 | 208 | 0.0 | 0.0 | 0.00 | 0.00 | 0.00 | 54 | 970.1 |
| 20260508225137 | 25 | 208 | 0.0 | 0.0 | 0.00 | 0.00 | 0.00 | 56 | 970.1 |
| 20260508224136 | 25 | 208 | 0.0 | 0.0 | 0.00 | 0.00 | 0.00 | 57 | 970.2 |
| 20260508223130 | 25 | 208 | 0.0 | 0.0 | 0.00 | 0.00 | 0.00 | 58 | 970.0 |
| 20260508222144 | 26 | 208 | 0.0 | 0.0 | 0.00 | 0.00 | 0.00 | 59 | 970.2 |
| 20260508221147 | 26 | 205 | 0.0 | 0.0 | 0.00 | 0.00 | 0.00 | 60 | 970.1 |
| 20260508220135 | 26 | 205 | 0.0 | 0.0 | 0.00 | 0.00 | 0.00 | 59 | 970.0 |
| 20260508215117 | 26 | 206 | 0.0 | 0.0 | 0.00 | 0.00 | 0.00 | 59 | 970.1 |
| 20260508214121 | 26 | 206 | 0.0 | 0.0 | 0.00 | 0.00 | 0.00 | 60 | 970.3 |
| 20260508213120 | 26 | 194 | 0.0 | 0.0 | 0.00 | 0.00 | 0.00 | 59 | 970.4 |
| 20260508212111 | 26 | 193 | 0.0 | 0.0 | 0.00 | 0.00 | 0.00 | 59 | 970.5 |
| 20260508211136 | 26 | 209 | 0.0 | 0.0 | 0.00 | 0.00 | 0.00 | 60 | 970.7 |
| 20260508210106 | 26 | 210 | 0.0 | 0.0 | 0.00 | 0.00 | 0.00 | 60 | 970.9 |
| 20260508205052 | 26 | 215 | 0.0 | 0.0 | 0.00 | 0.00 | 0.00 | 60 | 971.0 |
| 20260508204105 | 25 | 140 | 0.0 | 0.0 | 0.00 | 0.00 | 0.00 | 60 | 971.2 |
| 20260508203112 | 26 | 142 | 0.0 | 0.0 | 0.00 | 0.00 | 0.00 | 60 | 971.3 |